Latest Weather Observations for Bridgetown

IDW60801

Issued at 3:32 pm WST Friday 6 March 2015 (issued every 30 minutes, with the page automatically refreshed every 10 minutes)

About weather observations | Map of weather stations | Latest weather observations for WA | Other Formats
Station Details ID: 009617 Name: BRIDGETOWN Lat: -33.95 Lon: 116.13 Height: 178.66 m
Data from the previous 72 hours. | See also: Recent months at Bridgetown
Date/Time
WST
Temp
°C
App
Temp
°C
Dew
Point
Rel
Hum
%
Delta-T
°C
Wind Press
QNH
hPa
Press
MSL
hPa
Rain
since 9 am
mm
Dir
 
Spd
km/h
Gust
km/h
Spd
kts
Gust
kts
06/03:30pm 30.4 27.8 7.6 24 12.5 SSE 11 20 6 11 1018.7 1018.2 0.0
06/03:00pm 31.0 29.3 7.5 23 12.9 ENE 6 11 3 6 1018.9 1018.4 0.0
06/02:30pm 30.6 28.4 7.7 24 12.6 SSE 9 19 5 10 1019.3 1018.8 0.0
06/02:00pm 29.8 27.0 7.1 24 12.3 S 11 20 6 11 1019.8 1019.3 0.0
06/01:30pm 29.9 28.3 8.9 27 11.7 E 7 13 4 7 1020.2 1019.7 0.0
06/01:00pm 29.1 27.5 8.7 28 11.3 SE 7 17 4 9 1020.7 1020.1 0.0
06/12:30pm 28.6 27.0 8.8 29 11.0 ESE 7 11 4 6 1021.2 1020.6 0.0
06/12:00pm 27.8 26.7 10.1 33 10.0 SE 6 15 3 8 1021.5 1020.9 0.0
06/11:30am 27.3 26.0 11.3 37 9.2 S 9 15 5 8 1022.1 1021.6 0.0
06/11:00am 26.1 25.5 12.2 42 8.0 SSE 7 13 4 7 1022.5 1022.0 0.0
06/10:30am 24.6 24.2 12.9 48 6.8 SSE 7 13 4 7 1022.8 1022.3 0.0
06/10:00am 23.4 23.2 13.0 52 6.0 SE 6 9 3 5 1023.1 1022.6 0.0
06/09:30am 21.8 21.7 13.2 58 5.0 ENE 6 11 3 6 1023.1 1022.6 0.0
06/09:00am 20.6 20.6 13.6 64 4.0 E 6 11 3 6 1023.1 1022.6 0.0
06/08:30am 19.2 19.1 13.8 71 3.1 ENE 7 13 4 7 1023.3 1022.8 0.0
06/08:00am 18.1 18.6 14.0 77 2.4 ESE 4 9 2 5 1023.6 1023.1 0.0
06/07:30am 15.9 16.6 14.6 92 0.7 S 4 6 2 3 1023.7 1023.2 0.0
06/07:00am 13.2 14.1 13.0 99 0.1 CALM 0 2 0 1 1023.6 1023.1 0.0
06/06:30am 11.5 11.9 11.3 99 0.1 CALM 0 0 0 0 1023.4 1022.9 0.0
06/06:00am 12.3 13.0 12.1 99 0.1 CALM 0 0 0 0 1023.2 1022.7 0.0
06/05:30am 12.3 12.9 12.0 98 0.2 CALM 0 0 0 0 1023.2 1022.7 0.0
06/05:00am 12.7 13.1 12.4 98 0.2 SE 2 6 1 3 1023.0 1022.5 0.0
06/04:30am 13.6 14.6 13.3 98 0.2 CALM 0 0 0 0 1023.1 1022.6 0.0
06/04:00am 14.5 15.6 13.5 94 0.6 CALM 0 0 0 0 1023.2 1022.7 0.0
06/03:30am 15.2 16.4 13.7 91 0.8 CALM 0 0 0 0 1023.3 1022.8 0.0
06/03:00am 15.9 17.1 13.7 87 1.2 CALM 0 2 0 1 1023.5 1023.0 0.0
06/02:30am 16.5 16.9 13.6 83 1.6 E 4 9 2 5 1023.4 1022.9 0.0
06/02:00am 16.9 17.3 13.6 81 1.9 SE 4 7 2 4 1023.6 1023.1 0.0
06/01:30am 17.5 17.4 13.4 77 2.3 SE 6 11 3 6 1023.7 1023.2 0.0
06/01:00am 18.2 18.0 13.1 72 2.9 SE 6 9 3 5 1023.7 1023.2 0.0
06/12:30am 18.9 18.5 12.9 68 3.4 SE 7 15 4 8 1023.9 1023.4 0.0
06/12:00am 19.5 19.0 12.5 64 3.9 SE 7 15 4 8 1023.9 1023.4 0.0
 
Date/Time
WST
Temp
°C
App
Temp
°C
Dew
Point
Rel
Hum
%
Delta-T
°C
Wind Press
QNH
hPa
Press
MSL
hPa
Rain
since 9 am
mm
Dir
 
Spd
km/h
Gust
km/h
Spd
kts
Gust
kts
05/11:30pm 19.9 19.3 12.2 61 4.3 ESE 7 17 4 9 1023.8 1023.3 0.0
05/11:00pm 20.6 20.1 12.1 58 4.8 ESE 6 13 3 7 1023.7 1023.2 0.0
05/10:30pm 20.0 19.7 11.5 58 4.7 SSE 4 6 2 3 1023.8 1023.3 0.0
05/10:00pm 20.7 19.8 10.8 53 5.4 SSE 6 7 3 4 1023.9 1023.4 0.0
05/09:30pm 21.1 19.9 9.7 48 6.2 SSE 6 9 3 5 1023.8 1023.3 0.0
05/09:00pm 19.8 19.2 8.8 49 5.8 SSE 2 6 1 3 1023.6 1023.1 0.0
05/08:30pm 21.0 20.6 8.3 44 6.7 CALM 0 0 0 0 1023.2 1022.7 0.0
05/08:00pm 23.1 22.5 7.2 36 8.3 CALM 0 0 0 0 1022.9 1022.4 0.0
05/07:30pm 25.4 24.4 7.5 32 9.5 SE 2 7 1 4 1022.6 1022.1 0.0
05/07:00pm 26.4 25.0 7.4 30 10.1 ESE 4 6 2 3 1022.2 1021.7 0.0
05/06:30pm 27.2 25.4 7.1 28 10.7 ESE 6 11 3 6 1022.0 1021.5 0.0
05/06:00pm 28.2 25.9 7.4 27 11.2 ESE 9 19 5 10 1022.0 1021.5 0.0
05/05:30pm 29.0 27.0 7.0 25 11.9 SE 7 13 4 7 1021.8 1021.3 0.0
05/05:00pm 29.5 26.8 7.4 25 12.0 ENE 11 15 6 8 1021.9 1021.4 0.0
05/04:30pm 29.6 27.2 6.9 24 12.3 E 9 20 5 11 1021.9 1021.4 0.0
05/04:00pm 29.4 26.9 6.7 24 12.2 E 9 24 5 13 1022.0 1021.5 0.0
05/03:30pm 29.1 26.6 6.5 24 12.1 E 9 17 5 9 1022.2 1021.7 0.0
05/03:00pm 28.7 25.9 8.4 28 11.2 ESE 13 20 7 11 1022.7 1022.2 0.0
05/02:30pm 29.0 26.5 8.1 27 11.5 SE 11 24 6 13 1023.0 1022.5 0.0
05/02:00pm 28.6 26.4 9.3 30 10.8 ESE 11 28 6 15 1023.6 1023.1 0.0
05/01:30pm 28.1 26.8 9.9 32 10.3 ESE 7 15 4 8 1023.9 1023.4 0.0
05/01:00pm 27.1 24.3 9.9 34 9.6 ESE 15 24 8 13 1024.4 1023.9 0.0
05/12:30pm 26.0 23.9 9.8 36 9.0 ENE 11 20 6 11 1024.8 1024.3 0.0
05/12:00pm 25.9 24.4 10.5 38 8.6 E 9 22 5 12 1025.2 1024.7 0.0
05/11:30am 26.0 24.4 11.7 41 8.2 ESE 11 20 6 11 1025.6 1025.1 0.0
05/11:00am 24.1 22.2 11.8 46 7.0 E 13 20 7 11 1026.0 1025.5 0.0
05/10:30am 23.2 22.1 11.9 49 6.4 ENE 9 17 5 9 1026.3 1025.8 0.0
05/10:00am 22.0 20.6 12.3 54 5.5 ENE 11 20 6 11 1026.8 1026.3 0.0
05/09:30am 20.5 18.3 12.0 58 4.8 ENE 15 24 8 13 1026.9 1026.4 0.0
05/09:00am 20.1 18.1 12.6 62 4.2 ENE 15 24 8 13 1026.8 1026.3 0.0
05/08:30am 18.9 18.4 12.6 67 3.6 E 7 13 4 7 1026.8 1026.3 0.0
05/08:00am 17.2 16.3 12.7 75 2.5 ENE 9 20 5 11 1027.0 1026.5 0.0
05/07:30am 16.3 16.0 12.7 79 2.0 E 6 13 3 7 1026.9 1026.4 0.0
05/07:00am 15.1 15.2 12.8 86 1.3 SE 4 7 2 4 1026.7 1026.2 0.0
05/06:30am 13.8 14.0 12.9 94 0.5 S 4 6 2 3 1026.3 1025.8 0.0
05/06:00am 13.7 13.8 12.6 93 0.6 SSE 4 7 2 4 1026.2 1025.7 0.0
05/05:30am 13.9 13.9 12.3 90 0.9 SSE 4 9 2 5 1025.9 1025.4 0.0
05/05:00am 14.0 13.9 12.2 89 1.0 SE 4 6 2 3 1025.6 1025.1 0.0
05/04:30am 14.2 14.5 12.2 88 1.1 SSE 2 6 1 3 1025.5 1025.0 0.0
05/04:00am 14.5 14.4 12.2 86 1.3 S 4 7 2 4 1025.4 1024.9 0.0
05/03:30am 14.6 14.4 11.9 84 1.5 SE 4 9 2 5 1025.4 1024.9 0.0
05/03:00am 14.8 15.0 11.9 83 1.6 SE 2 6 1 3 1025.4 1024.9 0.0
05/02:30am 15.0 14.8 11.8 81 1.7 SE 4 9 2 5 1025.5 1025.0 0.0
05/02:00am 15.2 14.6 11.6 79 1.9 ESE 6 7 3 4 1025.6 1025.1 0.0
05/01:30am 15.5 15.2 11.3 76 2.3 SE 4 9 2 5 1025.8 1025.3 0.0
05/01:00am 15.9 14.9 11.1 73 2.6 ESE 7 13 4 7 1025.7 1025.2 0.0
05/12:30am 16.4 14.9 10.7 69 3.1 ESE 9 19 5 10 1025.7 1025.2 0.0
05/12:00am 16.8 15.3 10.4 66 3.4 E 9 19 5 10 1025.8 1025.3 0.0
 
Date/Time
WST
Temp
°C
App
Temp
°C
Dew
Point
Rel
Hum
%
Delta-T
°C
Wind Press
QNH
hPa
Press
MSL
hPa
Rain
since 9 am
mm
Dir
 
Spd
km/h
Gust
km/h
Spd
kts
Gust
kts
04/11:30pm 17.5 15.5 10.1 62 4.0 ESE 11 19 6 10 1025.6 1025.1 0.0
04/11:00pm 18.1 16.1 10.0 59 4.3 SE 11 19 6 10 1025.4 1024.9 0.0
04/10:30pm 18.7 16.6 9.8 56 4.8 ESE 11 19 6 10 1025.5 1025.0 0.0
04/10:00pm 19.6 16.7 9.8 53 5.2 ESE 15 26 8 14 1025.3 1024.8 0.0
04/09:30pm 20.4 17.1 9.6 50 5.8 ESE 17 28 9 15 1025.3 1024.8 0.0
04/09:00pm 21.4 18.5 9.6 47 6.4 ESE 15 32 8 17 1024.9 1024.4 0.0
04/08:30pm 22.1 20.0 9.9 46 6.7 ESE 11 19 6 10 1024.6 1024.1 0.0
04/08:00pm 22.5 20.2 10.6 47 6.6 SE 13 22 7 12 1024.0 1023.5 0.0
04/07:30pm 23.2 20.9 10.6 45 7.0 SE 13 28 7 15 1023.5 1023.0 0.0
04/07:00pm 24.9 21.5 9.2 37 8.6 SE 17 32 9 17 1022.9 1022.4 0.0
04/06:30pm 26.7 24.5 6.2 27 10.8 ESE 7 19 4 10 1022.4 1021.9 0.0
04/06:00pm 27.4 24.1 6.2 26 11.1 ESE 13 24 7 13 1022.1 1021.6 0.0
04/05:30pm 28.2 25.4 6.9 26 11.4 E 11 20 6 11 1021.9 1021.4 0.0
04/05:00pm 28.4 24.6 5.9 24 11.8 E 15 24 8 13 1021.7 1021.2 0.0
04/04:30pm 28.9 25.6 6.3 24 12.0 ESE 13 26 7 14 1021.6 1021.0 0.0
04/04:00pm 28.8 25.8 6.2 24 12.0 ESE 11 19 6 10 1021.6 1021.0 0.0
04/03:30pm 28.3 25.1 7.0 26 11.4 ESE 13 24 7 13 1021.8 1021.3 0.0
04/03:00pm 28.6 25.6 6.1 24 11.9 ESE 11 24 6 13 1021.9 1021.4 0.0
04/02:30pm 28.5 26.8 8.2 28 11.1 SE 7 17 4 9 1022.2 1021.7 0.0
04/02:00pm 28.0 26.0 8.8 30 10.6 SSE 9 15 5 8 1022.5 1022.0 0.0
04/01:30pm 26.8 24.6 9.2 33 9.7 ESE 11 20 6 11 1022.8 1022.3 0.0
04/01:00pm 25.7 23.4 9.1 35 9.1 E 11 24 6 13 1023.3 1022.8 0.0
04/12:30pm 25.2 22.6 9.5 37 8.7 SE 13 20 7 11 1023.7 1023.2 0.0
04/12:00pm 24.7 22.1 9.4 38 8.4 ESE 13 22 7 12 1024.1 1023.6 0.0
04/11:30am 23.8 21.3 9.8 41 7.7 E 13 19 7 10 1024.7 1024.2 0.0
04/11:00am 22.1 19.6 9.6 45 6.8 E 13 20 7 11 1025.2 1024.7 0.0
04/10:30am 21.1 19.1 10.3 50 5.9 ESE 11 19 6 10 1025.6 1025.1 0.0
04/10:00am 19.5 17.3 10.8 57 4.7 SE 13 22 7 12 1025.7 1025.2 0.0
04/09:30am 18.2 16.1 11.3 64 3.8 SE 13 20 7 11 1025.8 1025.3 0.0
04/09:00am 17.2 15.3 11.7 70 3.0 E 13 20 7 11 1025.9 1025.4 0.0
04/08:30am 16.4 14.6 12.0 75 2.4 E 13 20 7 11 1025.8 1025.3 0.0
04/08:00am 15.7 13.9 12.1 79 2.0 SE 13 24 7 13 1026.0 1025.5 0.0
04/07:30am 14.4 14.2 11.9 85 1.4 SSE 4 7 2 4 1025.7 1025.2 0.0
04/07:00am 12.6 12.9 12.3 98 0.2 SSE 2 11 1 6 1025.2 1024.7 0.0
04/06:30am 9.5 9.3 9.2 98 0.1 CALM 0 0 0 0 1025.1 1024.6 0.0
04/06:00am 10.9 10.7 10.6 98 0.2 S 2 4 1 2 1024.5 1024.0 0.0
04/05:30am 10.8 10.6 10.5 98 0.2 SSW 2 6 1 3 1024.4 1023.9 0.0
04/05:00am 11.3 10.9 11.0 98 0.2 SSE 4 6 2 3 1024.1 1023.6 0.0
04/04:30am 11.4 11.8 11.1 98 0.2 CALM 0 2 0 1 1024.0 1023.5 0.0
04/04:00am 12.5 12.2 11.4 93 0.6 S 4 6 2 3 1023.7 1023.2 0.0
04/03:30am 12.6 12.3 11.5 93 0.6 S 4 7 2 4 1023.6 1023.1 0.0
04/03:00am 12.4 12.4 11.0 91 0.7 S 2 6 1 3 1023.5 1023.0 0.0
04/02:30am 12.9 12.9 11.1 89 1.0 S 2 4 1 2 1023.6 1023.1 0.0
04/02:00am 13.4 12.6 11.1 86 1.2 SSE 6 9 3 5 1023.3 1022.8 0.0
04/01:30am 13.8 13.0 11.1 84 1.4 S 6 11 3 6 1023.5 1023.0 0.0
04/01:00am 14.1 13.3 11.1 82 1.6 SSE 6 9 3 5 1023.5 1023.0 0.0
04/12:30am 14.5 13.5 10.9 79 1.9 SE 7 13 4 7 1023.8 1023.3 0.0
04/12:00am 14.8 13.9 10.8 77 2.1 SSE 6 15 3 8 1023.8 1023.3 0.0
 
Date/Time
WST
Temp
°C
App
Temp
°C
Dew
Point
Rel
Hum
%
Delta-T
°C
Wind Press
QNH
hPa
Press
MSL
hPa
Rain
since 9 am
mm
Dir
 
Spd
km/h
Gust
km/h
Spd
kts
Gust
kts
03/11:30pm 15.2 13.7 10.6 74 2.4 SE 9 19 5 10 1023.9 1023.4 0.0
03/11:00pm 15.7 14.2 10.5 71 2.8 SE 9 17 5 9 1024.0 1023.5 0.0
03/10:30pm 16.3 14.4 10.4 68 3.1 SE 11 19 6 10 1023.9 1023.4 0.0
03/10:00pm 17.0 14.7 10.4 65 3.5 SE 13 26 7 14 1023.8 1023.3 0.0
03/09:30pm 17.7 15.4 10.6 63 3.8 SSE 13 24 7 13 1023.6 1023.1 0.0
03/09:00pm 18.5 16.2 10.6 60 4.3 SSE 13 22 7 12 1023.3 1022.8 0.0
03/08:30pm 19.2 17.7 10.5 57 4.7 SSE 9 17 5 9 1022.9 1022.4 0.0
03/08:00pm 20.3 18.1 10.7 54 5.3 SSE 13 26 7 14 1022.3 1021.8 0.0
03/07:30pm 20.6 18.8 11.0 54 5.3 S 11 22 6 12 1021.7 1021.2 0.0
03/07:00pm 21.4 19.6 10.9 51 5.8 S 11 19 6 10 1021.3 1020.7 0.0
03/06:30pm 24.4 22.4 8.8 37 8.5 SE 9 19 5 10 1020.9 1020.3 0.0
03/06:00pm 25.0 23.0 8.5 35 8.9 ESE 9 19 5 10 1020.4 1019.9 0.0
03/05:30pm 25.8 23.7 8.3 33 9.5 SE 9 17 5 9 1020.2 1019.7 0.0
03/05:00pm 26.0 22.8 8.5 33 9.5 SSE 15 22 8 12 1020.1 1019.6 0.0
03/04:30pm 25.6 23.2 8.6 34 9.3 SE 11 22 6 12 1020.2 1019.7 0.0
03/04:00pm 25.7 23.7 8.7 34 9.2 SE 9 17 5 9 1020.2 1019.7 0.0

Other Formats:

Comma delimited format used in spreadsheet applications
http://www.bom.gov.au/fwo/IDW60801/IDW60801.95632.axf

JavaScript Object Notation format (JSON) in row-major order
http://www.bom.gov.au/fwo/IDW60801/IDW60801.95632.json